createdAt,value
2019-04-07T00:02:13.069Z,98547.53
2019-04-07T00:04:42.991Z,98555.20
2019-04-07T00:07:13.842Z,98549.59
2019-04-07T00:09:43.697Z,98553.69
2019-04-07T00:12:13.777Z,98552.28
2019-04-07T00:14:43.757Z,98553.34
2019-04-07T00:17:13.821Z,98551.91
2019-04-07T00:19:43.646Z,98550.38
2019-04-07T00:22:13.417Z,98558.25
2019-04-07T00:24:42.997Z,98548.83
2019-04-07T00:27:12.997Z,98546.70
2019-04-07T00:29:42.712Z,98543.72
2019-04-07T00:32:12.300Z,98545.24
2019-04-07T00:34:42.372Z,98547.02
2019-04-07T00:37:12.022Z,98546.63
2019-04-07T00:39:41.611Z,98544.93
2019-04-07T00:42:11.428Z,98540.70
2019-04-07T00:44:41.578Z,98541.23
2019-04-07T00:47:11.168Z,98531.49
2019-04-07T00:49:41.246Z,98533.86
2019-04-07T00:52:12.027Z,98537.52
2019-04-07T00:54:42.393Z,98541.41
2019-04-07T00:57:12.201Z,98526.51
2019-04-07T00:59:41.839Z,98535.56
2019-04-07T01:02:11.433Z,98533.70
2019-04-07T01:04:41.032Z,98529.12
2019-04-07T01:07:11.269Z,98537.08
2019-04-07T01:09:41.001Z,98525.86
2019-04-07T01:12:10.763Z,98527.52
2019-04-07T01:14:40.343Z,98525.16
2019-04-07T01:17:09.957Z,98527.47
2019-04-07T01:19:39.800Z,98523.30
2019-04-07T01:22:09.957Z,98514.69
2019-04-07T01:24:39.619Z,98519.67
2019-04-07T01:27:09.304Z,98523.44
2019-04-07T01:29:38.874Z,98517.68
2019-04-07T01:32:08.773Z,98516.31
2019-04-07T01:34:38.584Z,98514.95
2019-04-07T01:37:08.767Z,98510.79
2019-04-07T01:39:38.408Z,98510.34
2019-04-07T01:42:21.370Z,98511.09
2019-04-07T01:45:08.904Z,98501.50
2019-04-07T01:48:00.714Z,98496.98
2019-04-07T01:50:45.293Z,98499.02
2019-04-07T01:53:32.403Z,98495.56
2019-04-07T01:56:23.726Z,98491.33
2019-04-07T01:59:15.402Z,98491.48
2019-04-07T02:01:52.685Z,98488.44
2019-04-07T02:04:44.625Z,98487.84
2019-04-07T02:07:27.268Z,98487.17
2019-04-07T02:10:16.279Z,98490.16
2019-04-07T02:13:14.128Z,98479.22
2019-04-07T02:16:12.308Z,98484.08
2019-04-07T02:18:57.381Z,98481.48
2019-04-07T02:21:36.152Z,98473.33
2019-04-07T02:24:24.627Z,98474.73
2019-04-07T02:27:33.964Z,98471.48
2019-04-07T02:30:25.416Z,98469.28
2019-04-07T02:33:07.197Z,98419.80
2019-04-07T02:35:54.365Z,98467.75
2019-04-07T02:38:38.921Z,98466.61
2019-04-07T02:41:46.629Z,98462.14
2019-04-07T02:44:30.025Z,98465.14
2019-04-07T02:47:13.691Z,98467.36
2019-04-07T02:50:03.365Z,98459.77
2019-04-07T02:52:52.868Z,98460.30
2019-04-07T02:55:42.296Z,98462.85
2019-04-07T02:58:27.170Z,98461.34
2019-04-07T03:01:22.258Z,98462.41
2019-04-07T03:04:29.211Z,98457.75
2019-04-07T03:07:11.831Z,98458.56
2019-04-07T03:09:50.338Z,98454.17
2019-04-07T03:12:54.184Z,98456.47
2019-04-07T03:15:38.871Z,98457.11
2019-04-07T03:18:27.395Z,98459.09
2019-04-07T03:21:08.386Z,98464.52
2019-04-07T03:23:59.977Z,98454.69
2019-04-07T03:26:44.501Z,98458.58
2019-04-07T03:29:29.490Z,98459.64
2019-04-07T03:32:18.251Z,98459.33
2019-04-07T03:34:52.031Z,98455.89
2019-04-07T03:37:43.025Z,98450.70
2019-04-07T03:40:28.562Z,98449.62
2019-04-07T03:43:03.069Z,98449.68
2019-04-07T03:45:47.079Z,98455.81
2019-04-07T03:48:31.676Z,98457.98
2019-04-07T03:51:09.367Z,98450.72
2019-04-07T03:54:10.249Z,98454.60
2019-04-07T03:56:58.335Z,98445.34
2019-04-07T03:59:53.284Z,98444.65
2019-04-07T04:02:37.910Z,98451.40
2019-04-07T04:05:29.689Z,98445.33
2019-04-07T04:08:18.443Z,98455.05
2019-04-07T04:11:00.153Z,98463.74
2019-04-07T04:13:42.384Z,98456.25
2019-04-07T04:16:32.010Z,98454.84
2019-04-07T04:19:02.462Z,98458.88
2019-04-07T04:21:32.865Z,98461.27
2019-04-07T04:24:03.998Z,98460.84
2019-04-07T04:26:34.346Z,98461.55
2019-04-07T04:29:04.105Z,98464.48
2019-04-07T04:31:33.885Z,98466.86
2019-04-07T04:34:03.437Z,98467.12
2019-04-07T04:36:33.509Z,98461.65
2019-04-07T04:39:04.896Z,98462.09
2019-04-07T04:41:34.834Z,98464.45
2019-04-07T04:44:04.826Z,98467.52
2019-04-07T04:46:34.546Z,98471.43
2019-04-07T04:49:04.278Z,98475.23
2019-04-07T04:51:36.941Z,98467.58
2019-04-07T04:54:05.248Z,98473.94
2019-04-07T04:56:34.884Z,98478.44
2019-04-07T04:59:04.448Z,98477.28
2019-04-07T05:01:34.479Z,98472.02
2019-04-07T05:04:04.087Z,98469.99
2019-04-07T05:06:33.651Z,98464.34
2019-04-07T05:09:05.608Z,98464.88
2019-04-07T05:11:35.864Z,98469.13
2019-04-07T05:14:05.929Z,98462.05
2019-04-07T05:16:35.658Z,98463.91
2019-04-07T05:19:05.248Z,98462.70
2019-04-07T05:21:35.003Z,98462.50
2019-04-07T05:24:04.587Z,98464.98
2019-04-07T05:26:34.529Z,98465.45
2019-04-07T05:29:04.749Z,98466.81
2019-04-07T05:31:34.765Z,98465.89
2019-04-07T05:34:05.348Z,98460.27
2019-04-07T05:36:34.929Z,98463.36
2019-04-07T05:39:07.443Z,98463.82
2019-04-07T05:41:37.234Z,98466.36
2019-04-07T05:44:06.832Z,98460.55
2019-04-07T05:46:40.186Z,98466.85
2019-04-07T05:49:07.731Z,98469.36
2019-04-07T05:51:37.389Z,98466.12
2019-04-07T05:54:07.189Z,98478.03
2019-04-07T05:56:37.023Z,98479.09
2019-04-07T05:59:09.905Z,98476.61
2019-04-07T06:01:38.018Z,98474.31
2019-04-07T06:04:07.643Z,98477.33
2019-04-07T06:06:39.876Z,98475.89
2019-04-07T06:09:09.460Z,98473.20
2019-04-07T06:11:39.089Z,98472.48
2019-04-07T06:14:08.723Z,98471.53
2019-04-07T06:16:38.764Z,98478.55
2019-04-07T06:19:09.000Z,98472.34
2019-04-07T06:21:38.674Z,98473.56
2019-04-07T06:24:08.932Z,98479.56
2019-04-07T06:26:40.956Z,98485.25
2019-04-07T06:29:10.490Z,98481.98
2019-04-07T06:31:40.344Z,98481.95
2019-04-07T06:34:11.314Z,98487.63
2019-04-07T06:36:41.290Z,98486.20
2019-04-07T06:39:11.029Z,98489.47
2019-04-07T06:41:40.711Z,98489.67
2019-04-07T06:44:13.808Z,98494.34
2019-04-07T06:47:04.586Z,98498.81
2019-04-07T06:49:56.443Z,98493.61
2019-04-07T06:52:38.741Z,98493.56
2019-04-07T06:55:32.711Z,98490.09
2019-04-07T06:58:08.366Z,98493.63
2019-04-07T07:00:56.723Z,98497.36
2019-04-07T07:03:51.399Z,98494.34
2019-04-07T07:06:40.625Z,98497.86
2019-04-07T07:09:41.694Z,98493.58
2019-04-07T07:12:34.990Z,98502.63
2019-04-07T07:15:26.785Z,98503.86
2019-04-07T07:18:14.326Z,98499.94
2019-04-07T07:20:53.905Z,98503.09
2019-04-07T07:23:27.362Z,98511.25
2019-04-07T07:26:00.978Z,98513.61
2019-04-07T07:28:28.335Z,98511.41
2019-04-07T07:30:58.842Z,98505.23
2019-04-07T07:33:29.224Z,98505.09
2019-04-07T07:35:59.309Z,98515.48
2019-04-07T07:38:31.102Z,98513.52
2019-04-07T07:41:02.119Z,98516.41
2019-04-07T07:43:31.921Z,98509.38
2019-04-07T07:46:01.967Z,98511.55
2019-04-07T07:48:32.212Z,98519.11
2019-04-07T07:51:02.427Z,98517.12
2019-04-07T07:53:32.863Z,98508.94
2019-04-07T07:56:03.204Z,98507.41
2019-04-07T07:58:34.497Z,98509.09
2019-04-07T08:01:04.659Z,98513.07
2019-04-07T08:03:35.189Z,98506.89
2019-04-07T08:06:08.128Z,98508.40
2019-04-07T08:08:36.365Z,98508.76
2019-04-07T08:11:06.748Z,98516.25
2019-04-07T08:13:42.036Z,98510.28
2019-04-07T08:16:07.775Z,98508.52
2019-04-07T08:18:40.646Z,98512.07
2019-04-07T08:21:10.401Z,98511.26
2019-04-07T08:23:43.104Z,98507.92
2019-04-07T08:26:11.719Z,98508.31
2019-04-07T08:28:41.334Z,98511.64
2019-04-07T08:31:11.067Z,98509.88
2019-04-07T08:33:40.965Z,98507.44
2019-04-07T08:36:12.986Z,98510.19
2019-04-07T08:38:42.269Z,98504.73
2019-04-07T08:41:14.287Z,98498.80
2019-04-07T08:43:43.393Z,98498.57
2019-04-07T08:46:13.696Z,98502.07
2019-04-07T08:48:43.326Z,98495.73
2019-04-07T08:51:13.633Z,98498.18
2019-04-07T08:53:44.927Z,98495.70
2019-04-07T08:56:15.439Z,98499.91
2019-04-07T08:58:45.741Z,98493.38
2019-04-07T09:01:19.326Z,98501.73
2019-04-07T09:03:47.294Z,98494.35
2019-04-07T09:06:17.348Z,98493.91
2019-04-07T09:08:47.032Z,98494.30
2019-04-07T09:11:20.954Z,98496.17
2019-04-07T09:13:54.758Z,98493.61
2019-04-07T09:16:40.563Z,98496.22
2019-04-07T09:19:38.580Z,98490.38
2019-04-07T09:22:25.878Z,98496.14
2019-04-07T09:25:13.060Z,98488.17
2019-04-07T09:27:51.018Z,98492.27
2019-04-07T09:30:42.152Z,98482.36
2019-04-07T09:33:33.962Z,98485.27
2019-04-07T09:36:20.313Z,98482.22
2019-04-07T09:39:12.404Z,98484.77
2019-04-07T09:41:55.142Z,98481.31
2019-04-07T09:44:43.740Z,98479.69
2019-04-07T09:47:39.145Z,98476.61
2019-04-07T09:50:28.797Z,98471.33
2019-04-07T09:53:13.782Z,98469.39
2019-04-07T09:56:22.721Z,98465.88
2019-04-07T09:59:16.799Z,98465.62
2019-04-07T10:02:00.275Z,98462.34
2019-04-07T10:04:44.029Z,98460.75
2019-04-07T10:07:29.497Z,98464.91
2019-04-07T10:10:16.098Z,98452.66
2019-04-07T10:13:03.409Z,98457.56
2019-04-07T10:15:51.863Z,98450.16
2019-04-07T10:18:46.498Z,98455.59
2019-04-07T10:21:26.438Z,98460.19
2019-04-07T10:24:15.280Z,98456.90
2019-04-07T10:27:10.782Z,98457.19
2019-04-07T10:29:51.396Z,98445.55
2019-04-07T10:32:48.950Z,98440.20
2019-04-07T10:35:25.918Z,98440.50
2019-04-07T10:38:20.490Z,98446.30
2019-04-07T10:40:56.675Z,98443.36
2019-04-07T10:43:45.161Z,98437.28
2019-04-07T10:46:42.760Z,98436.47
2019-04-07T10:49:43.304Z,98434.88
2019-04-07T10:52:31.407Z,98429.81
2019-04-07T10:55:20.725Z,98422.55
2019-04-07T10:57:58.530Z,98418.67
2019-04-07T11:00:37.038Z,98419.17
2019-04-07T11:03:23.260Z,98412.65
2019-04-07T11:06:07.248Z,98417.89
2019-04-07T11:08:45.543Z,98421.64
2019-04-07T11:11:34.082Z,98435.80
2019-04-07T11:14:21.757Z,98428.33
2019-04-07T11:17:04.814Z,98417.60
2019-04-07T11:19:46.291Z,98421.28
2019-04-07T11:22:36.933Z,98415.80
2019-04-07T11:25:29.532Z,98410.88
2019-04-07T11:28:18.186Z,98407.75
2019-04-07T11:31:00.536Z,98392.53
2019-04-07T11:33:45.354Z,98389.50
2019-04-07T11:36:29.835Z,98392.37
2019-04-07T11:39:17.719Z,98389.09
2019-04-07T11:42:09.176Z,98391.49
2019-04-07T11:44:58.380Z,98390.20
2019-04-07T11:47:46.047Z,98381.64
2019-04-07T11:50:22.299Z,98384.77
2019-04-07T11:53:05.085Z,98374.30
2019-04-07T11:55:47.511Z,98372.78
2019-04-07T11:58:51.470Z,98378.09
2019-04-07T12:01:50.138Z,98378.50
2019-04-07T12:04:54.135Z,98367.89
2019-04-07T12:07:55.791Z,98368.75
2019-04-07T12:10:37.780Z,98365.87
2019-04-07T12:13:29.716Z,98356.92
2019-04-07T12:16:27.735Z,98364.71
2019-04-07T12:19:13.842Z,98362.48
2019-04-07T12:22:03.215Z,98356.69
2019-04-07T12:24:57.520Z,98350.88
2019-04-07T12:28:01.221Z,98350.47
2019-04-07T12:30:50.264Z,98344.08
2019-04-07T12:33:48.590Z,98343.77
2019-04-07T12:36:56.183Z,98340.35
2019-04-07T12:39:47.302Z,98341.49
2019-04-07T12:42:27.808Z,98342.88
2019-04-07T12:45:05.751Z,98344.77
2019-04-07T12:47:43.067Z,98340.53
2019-04-07T12:50:32.738Z,98335.59
2019-04-07T12:53:21.920Z,98338.72
2019-04-07T12:56:09.702Z,98342.30
2019-04-07T12:59:17.937Z,98334.14
2019-04-07T13:02:09.651Z,98331.65
2019-04-07T13:04:53.354Z,98340.13
2019-04-07T13:07:48.427Z,98331.05
2019-04-07T13:10:39.387Z,98333.95
2019-04-07T13:13:43.867Z,98337.14
2019-04-07T13:16:32.470Z,98334.90
2019-04-07T13:19:27.481Z,98330.02
2019-04-07T13:22:15.138Z,98323.22
2019-04-07T13:25:23.173Z,98327.00
2019-04-07T13:28:12.427Z,98323.16
2019-04-07T13:31:10.149Z,98328.52
2019-04-07T13:34:17.841Z,98325.05
2019-04-07T13:37:09.192Z,98326.79
2019-04-07T13:40:04.028Z,98323.69
2019-04-07T13:42:42.051Z,98318.27
2019-04-07T13:45:34.385Z,98317.27
2019-04-07T13:48:35.547Z,98319.56
2019-04-07T13:51:27.968Z,98313.70
2019-04-07T13:54:34.809Z,98302.95
2019-04-07T13:57:25.609Z,98300.63
2019-04-07T14:00:14.270Z,98295.48
2019-04-07T14:03:07.016Z,98302.16
2019-04-07T14:05:59.000Z,98304.91
2019-04-07T14:08:39.195Z,98305.58
2019-04-07T14:11:30.743Z,98307.47
2019-04-07T14:14:18.227Z,98304.77
2019-04-07T14:17:06.267Z,98305.79
2019-04-07T14:19:55.216Z,98301.23
2019-04-07T14:22:40.009Z,98308.48
2019-04-07T14:25:17.988Z,98309.16
2019-04-07T14:28:09.980Z,98299.95
2019-04-07T14:31:01.637Z,98299.55
2019-04-07T14:33:53.485Z,98302.72
2019-04-07T14:36:42.726Z,98299.39
2019-04-07T14:39:20.551Z,98296.61
2019-04-07T14:42:07.322Z,98299.70
2019-04-07T14:44:56.656Z,98296.48
2019-04-07T14:47:32.462Z,98294.91
2019-04-07T14:50:25.108Z,98298.00
2019-04-07T14:53:20.044Z,98300.38
2019-04-07T14:56:09.985Z,98297.08
2019-04-07T14:58:53.836Z,98294.22
2019-04-07T15:02:00.543Z,98292.20
2019-04-07T15:04:43.864Z,98291.30
2019-04-07T15:07:38.602Z,98289.15
2019-04-07T15:10:21.577Z,98287.09
2019-04-07T15:12:55.700Z,98288.95
2019-04-07T15:15:25.469Z,98284.89
2019-04-07T15:17:55.188Z,98280.48
2019-04-07T15:20:25.098Z,98280.16
2019-04-07T15:22:58.368Z,98275.54
2019-04-07T15:25:27.697Z,98273.92
2019-04-07T15:27:58.904Z,98279.88
2019-04-07T15:30:29.889Z,98274.28
2019-04-07T15:33:01.622Z,98270.45
2019-04-07T15:35:31.016Z,98269.02
2019-04-07T15:38:01.275Z,98274.22
2019-04-07T15:40:35.006Z,98272.63
2019-04-07T15:43:04.758Z,98274.41
2019-04-07T15:45:33.787Z,98271.60
2019-04-07T15:48:03.475Z,98274.84
2019-04-07T15:50:33.293Z,98271.16
2019-04-07T15:53:02.998Z,98273.75
2019-04-07T15:55:46.014Z,98278.91
2019-04-07T15:58:04.292Z,98267.22
2019-04-07T16:00:35.267Z,98269.13
2019-04-07T16:03:05.481Z,98222.28
2019-04-07T16:05:41.270Z,98284.06
2019-04-07T16:08:06.705Z,98275.75
2019-04-07T16:10:36.416Z,98286.81
2019-04-07T16:13:06.699Z,98281.55
2019-04-07T16:15:37.261Z,98284.96
2019-04-07T16:18:08.264Z,98282.14
2019-04-07T16:20:40.362Z,98298.22
2019-04-07T16:23:10.432Z,98291.52
2019-04-07T16:25:41.795Z,98294.02
2019-04-07T16:28:14.642Z,98288.88
2019-04-07T16:30:43.003Z,98282.91
2019-04-07T16:33:12.697Z,98285.65
2019-04-07T16:35:43.941Z,98275.17
2019-04-07T16:38:14.137Z,98286.63
2019-04-07T16:40:44.623Z,98278.16
2019-04-07T16:43:16.739Z,98283.45
2019-04-07T16:45:46.326Z,98287.76
2019-04-07T16:48:16.922Z,98288.48
2019-04-07T16:50:51.846Z,98292.88
2019-04-07T16:53:18.401Z,98296.78
2019-04-07T16:55:52.741Z,98300.62
2019-04-07T16:58:19.847Z,98299.77
2019-04-07T17:00:49.908Z,98300.38
2019-04-07T17:03:20.487Z,98294.08
2019-04-07T17:05:50.394Z,98302.13
2019-04-07T17:08:22.961Z,98295.58
2019-04-07T17:10:51.618Z,98295.30
2019-04-07T17:13:31.420Z,98296.50
2019-04-07T17:15:53.981Z,98296.32
2019-04-07T17:18:41.437Z,98305.19
2019-04-07T17:21:16.070Z,98307.22
2019-04-07T17:23:46.265Z,98307.15
2019-04-07T17:26:16.034Z,98307.00
2019-04-07T17:28:48.087Z,98309.70
2019-04-07T17:31:17.596Z,98311.04
2019-04-07T17:33:47.484Z,98318.09
2019-04-07T17:36:20.136Z,98314.91
2019-04-07T17:39:09.621Z,98321.69
2019-04-07T17:41:39.598Z,98320.50
2019-04-07T17:44:35.081Z,98325.05
2019-04-07T17:47:29.477Z,98326.94
2019-04-07T17:50:20.013Z,98322.11
2019-04-07T17:53:10.174Z,98329.98
2019-04-07T17:56:03.991Z,98280.45
2019-04-07T17:58:58.991Z,98333.08
2019-04-07T18:01:55.440Z,98334.92
2019-04-07T18:04:51.228Z,98342.00
2019-04-07T18:07:38.195Z,98337.70
2019-04-07T18:10:26.648Z,98341.77
2019-04-07T18:13:43.781Z,98339.45
2019-04-07T18:16:27.304Z,98338.22
2019-04-07T18:19:15.258Z,98340.95
2019-04-07T18:22:06.994Z,98338.27
2019-04-07T18:24:43.843Z,98336.59
2019-04-07T18:27:23.257Z,98340.55
2019-04-07T18:30:00.711Z,98342.70
2019-04-07T18:33:01.043Z,98335.36
2019-04-07T18:35:37.698Z,98339.66
2019-04-07T18:38:33.090Z,98339.33
2019-04-07T18:41:38.070Z,98336.23
2019-04-07T18:44:32.650Z,98335.45
2019-04-07T18:47:27.360Z,98336.61
2019-04-07T18:50:16.599Z,98332.23
2019-04-07T18:53:14.682Z,98327.15
2019-04-07T18:56:02.320Z,98327.22
2019-04-07T18:58:51.666Z,98323.63
2019-04-07T19:01:52.242Z,98326.33
2019-04-07T19:04:30.346Z,98322.63
2019-04-07T19:07:31.422Z,98323.52
2019-04-07T19:10:26.839Z,98322.48
2019-04-07T19:13:33.623Z,98325.27
2019-04-07T19:16:34.228Z,98323.34
2019-04-07T19:19:20.281Z,98318.31
2019-04-07T19:22:04.573Z,98320.53
2019-04-07T19:25:05.110Z,98322.17
2019-04-07T19:28:00.036Z,98315.33
2019-04-07T19:30:47.516Z,98320.81
2019-04-07T19:33:47.868Z,98312.12
2019-04-07T19:36:44.414Z,98313.91
2019-04-07T19:39:38.400Z,98321.35
2019-04-07T19:42:31.837Z,98314.05
2019-04-07T19:45:25.399Z,98314.24
2019-04-07T19:48:15.589Z,98313.17
2019-04-07T19:51:07.211Z,98311.32
2019-04-07T19:54:04.756Z,98308.11
2019-04-07T19:57:00.220Z,98310.19
2019-04-07T19:59:42.318Z,98311.08
2019-04-07T20:02:32.637Z,98306.64
2019-04-07T20:05:21.035Z,98306.49
2019-04-07T20:08:20.486Z,98307.36
2019-04-07T20:11:20.996Z,98302.52
2019-04-07T20:14:02.900Z,98301.56
2019-04-07T20:17:00.839Z,98302.19
2019-04-07T20:19:52.105Z,98298.60
2019-04-07T20:22:41.478Z,98298.60
2019-04-07T20:25:32.034Z,98294.37
2019-04-07T20:28:13.102Z,98296.78
2019-04-07T20:31:02.709Z,98292.73
2019-04-07T20:33:57.243Z,98292.33
2019-04-07T20:36:48.750Z,98300.63
2019-04-07T20:39:36.689Z,98299.27
2019-04-07T20:42:31.554Z,98289.70
2019-04-07T20:45:20.041Z,98291.80
2019-04-07T20:48:07.199Z,98292.64
2019-04-07T20:51:02.539Z,98288.40
2019-04-07T20:53:51.523Z,98290.80
2019-04-07T20:56:52.424Z,98292.11
2019-04-07T20:59:33.012Z,98292.66
2019-04-07T21:02:22.873Z,98289.73
2019-04-07T21:05:10.201Z,98289.56
2019-04-07T21:08:16.824Z,98287.17
2019-04-07T21:11:04.609Z,98282.19
2019-04-07T21:13:57.630Z,98282.28
2019-04-07T21:16:59.396Z,98276.10
2019-04-07T21:19:44.357Z,98279.63
2019-04-07T21:22:29.949Z,98274.98
2019-04-07T21:25:19.520Z,98268.31
2019-04-07T21:28:12.583Z,98271.56
2019-04-07T21:30:54.585Z,98268.25
2019-04-07T21:33:49.640Z,98273.91
2019-04-07T21:36:41.773Z,98264.50
2019-04-07T21:39:25.901Z,98260.83
2019-04-07T21:42:17.137Z,98255.58
2019-04-07T21:45:11.761Z,98253.68
2019-04-07T21:48:00.254Z,98250.52
2019-04-07T21:50:55.695Z,98254.30
2019-04-07T21:53:36.730Z,98253.14
2019-04-07T21:56:31.124Z,98252.59
2019-04-07T21:59:31.137Z,98246.44
2019-04-07T22:02:12.192Z,98244.81
2019-04-07T22:05:12.240Z,98243.13
2019-04-07T22:08:14.410Z,98255.22
2019-04-07T22:10:41.597Z,98249.16
2019-04-07T22:13:12.176Z,98244.65
2019-04-07T22:15:48.298Z,98245.33
2019-04-07T22:18:13.211Z,98243.59
2019-04-07T22:20:43.250Z,98249.67
2019-04-07T22:23:12.881Z,98230.54
2019-04-07T22:25:51.409Z,98239.70
2019-04-07T22:28:21.282Z,98240.14
2019-04-07T22:30:52.204Z,98239.53
2019-04-07T22:33:25.244Z,98236.62
2019-04-07T22:35:53.352Z,98226.41
2019-04-07T22:38:23.735Z,98232.95
2019-04-07T22:40:54.253Z,98228.80
2019-04-07T22:43:24.795Z,98232.42
2019-04-07T22:46:06.881Z,98223.31
2019-04-07T22:48:27.901Z,98222.36
2019-04-07T22:50:57.298Z,98219.73
2019-04-07T22:53:29.581Z,98217.77
2019-04-07T22:55:59.102Z,98215.28
2019-04-07T22:58:29.730Z,98217.48
2019-04-07T23:00:59.494Z,98218.66
2019-04-07T23:03:29.362Z,98210.34
2019-04-07T23:05:59.053Z,98203.80
2019-04-07T23:08:28.637Z,98199.67
2019-04-07T23:10:58.282Z,98201.41
2019-04-07T23:13:28.059Z,98201.41
2019-04-07T23:16:08.768Z,98198.32
2019-04-07T23:18:29.700Z,98201.55
2019-04-07T23:20:59.931Z,98197.36
2019-04-07T23:23:30.869Z,98200.42
2019-04-07T23:26:00.674Z,98186.01
2019-04-07T23:28:30.650Z,98187.00
2019-04-07T23:31:00.358Z,98187.73
2019-04-07T23:33:29.956Z,98183.69
2019-04-07T23:36:00.417Z,98181.06
2019-04-07T23:38:30.429Z,98179.33
2019-04-07T23:41:01.116Z,98181.67
2019-04-07T23:43:30.749Z,98176.81
2019-04-07T23:46:00.382Z,98172.20
2019-04-07T23:48:30.597Z,98175.27
2019-04-07T23:51:00.278Z,98159.19
2019-04-07T23:54:07.195Z,98157.63
2019-04-07T23:56:37.615Z,98159.66
2019-04-07T23:59:08.146Z,98157.03
